Time;durP1;ratioP1;P1;durP2;ratioP2;P2;SDS_P1;SDS_P2;PMS_P1;PMS_P2;Temp;Humidity;BMP_temperature;BMP_pressure;BME280_temperature;BME280_humidity;BME280_pressure;Samples;Min_cycle;Max_cycle;Signal;HPM_P1;HPM_P2
2022/12/22 03:27:44;;;;;;;;;2.00;2.00;;;;;10.41;100.00;99629.47;4983630;28;45304;-90
2022/12/22 03:30:12;;;;;;;;;3.25;2.75;;;;;10.01;100.00;99556.84;4983349;28;46935;-91
2022/12/22 03:32:38;;;;;;;;;5.25;2.00;;;;;11.11;99.99;99768.88;4973238;28;45219;-91
2022/12/22 03:35:09;;;;;;;;;2.25;1.25;;;;;10.42;100.00;99682.25;4992950;28;45282;-90
2022/12/22 03:37:38;;;;;;;;;0.00;0.00;;;;;10.38;100.00;99679.75;4975779;28;45501;-91
2022/12/22 03:40:04;;;;;;;;;2.00;1.00;;;;;10.79;99.72;99714.47;4990865;28;46763;-91
2022/12/22 03:48:04;;;;;;;;;1.50;1.00;;;;;10.09;100.00;99629.56;4990871;28;45319;-90
2022/12/22 03:50:32;;;;;;;;;4.50;2.00;;;;;11.07;100.00;99777.84;4988899;28;45287;-91
2022/12/22 03:52:57;;;;;;;;;2.50;1.00;;;;;10.90;99.72;99748.47;4985511;28;45291;-90
2022/12/22 03:55:25;;;;;;;;;4.00;2.00;;;;;10.74;100.00;99738.44;4969142;28;45300;-91
2022/12/22 03:57:56;;;;;;;;;3.00;2.00;;;;;10.00;100.00;99598.22;4981920;28;45399;-91
2022/12/22 04:00:22;;;;;;;;;0.00;0.00;;;;;11.16;99.92;99793.41;4973065;28;46744;-91
2022/12/22 04:02:50;;;;;;;;;1.00;1.00;;;;;10.78;99.08;99745.34;4976980;28;45239;-91
2022/12/22 04:05:19;;;;;;;;;2.00;1.00;;;;;10.39;99.20;99661.22;4983823;28;45328;-91
2022/12/22 04:07:46;;;;;;;;;3.75;1.75;;;;;11.48;99.42;99846.09;4963952;28;45522;-91
2022/12/22 04:12:56;;;;;;;;;2.25;0.50;;;;;9.46;99.19;99527.84;4992627;28;45254;-91
2022/12/22 04:15:40;;;;;;;;;2.75;2.00;;;;;10.55;98.88;99703.84;4989955;28;45335;-90
2022/12/22 04:18:06;;;;;;;;;1.00;0.00;;;;;11.25;99.78;99833.66;4975331;28;45704;-91
2022/12/22 04:20:34;;;;;;;;;1.25;0.25;;;;;9.99;98.95;99654.56;4970119;28;47119;-91
2022/12/22 04:23:12;;;;;;;;;3.50;2.50;;;;;11.05;98.29;99816.69;4967117;28;45416;-92
2022/12/22 04:25:51;;;;;;;;;0.00;0.00;;;;;11.31;98.05;99886.34;4984436;28;45318;-91
2022/12/22 04:28:49;;;;;;;;;3.00;1.00;;;;;10.53;98.00;99744.44;4961826;28;44859;-91
2022/12/22 04:31:27;;;;;;;;;1.50;1.50;;;;;10.94;98.63;99832.91;4969426;28;45644;-91
2022/12/22 04:34:05;;;;;;;;;1.25;1.25;;;;;9.87;98.58;99670.78;4967377;28;45261;-91
2022/12/22 04:36:43;;;;;;;;;0.50;0.25;;;;;10.93;99.40;99875.28;4980487;28;45282;-92
2022/12/22 04:39:27;;;;;;;;;0.25;0.00;;;;;9.53;99.25;99634.91;4962967;28;45263;-91
2022/12/22 04:45:39;;;;;;;;;2.00;0.50;;;;;10.79;98.98;99847.50;4976862;28;44719;-90
2022/12/22 04:51:07;;;;;;;;;0.00;0.00;;;;;9.54;98.73;99669.13;4978952;28;44843;-92
2022/12/22 04:53:44;;;;;;;;;3.00;0.75;;;;;9.45;98.87;99661.50;4976589;28;46694;-93
2022/12/22 04:56:41;;;;;;;;;;;;;;;;;;;;;
2022/12/22 05:06:12;;;;;;;;;1.00;0.00;;;;;10.78;98.58;99925.09;4964664;28;45424;-92
2022/12/22 05:09:14;;;;;;;;;;;;;;;;;;;;;
2022/12/22 05:15:38;;;;;;;;;;;;;;;;;;;;;
2022/12/22 05:21:43;;;;;;;;;2.00;1.00;;;;;11.28;98.70;100030.19;4924045;28;45312;-90
2022/12/22 05:24:16;;;;;;;;;1.00;1.00;;;;;11.27;98.53;100046.13;4923027;28;45468;-91
2022/12/22 05:26:45;;;;;;;;;0.00;0.00;;;;;10.51;97.92;99915.34;4926026;28;45453;-92
2022/12/22 05:29:25;;;;;;;;;2.00;0.00;;;;;9.50;98.08;99759.81;4924928;28;46925;-90
2022/12/22 05:32:21;;;;;;;;;;;;;;;;;;;;;
2022/12/22 05:35:11;;;;;;;;;;;;;;;;;;;;;
2022/12/22 05:50:05;;;;;;;;;0.00;0.00;;;;;11.12;99.12;100087.97;4944806;28;45469;-92
2022/12/22 05:52:31;;;;;;;;;1.00;0.00;;;;;10.08;98.42;99926.25;4928819;28;45486;-90
2022/12/22 05:55:02;;;;;;;;;0.00;0.00;;;;;9.69;98.63;99854.31;4935743;28;45480;-90
2022/12/22 05:57:37;;;;;;;;;0.00;0.00;;;;;11.15;98.98;100119.63;4944514;28;45397;-91
2022/12/22 06:00:17;;;;;;;;;0.00;0.00;;;;;9.36;98.33;99806.84;4933393;28;45389;-92
2022/12/22 06:06:22;;;;;;;;;0.00;0.00;;;;;11.12;99.53;100108.28;4907803;29;45530;-91
2022/12/22 06:08:48;;;;;;;;;0.75;0.00;;;;;10.45;99.38;100020.31;4910291;29;44771;-90
2022/12/22 06:11:24;;;;;;;;;0.00;0.00;;;;;10.69;99.75;100052.25;4879560;29;45053;-92
2022/12/22 06:13:51;;;;;;;;;0.00;0.00;;;;;9.75;100.00;99902.50;4897737;29;45430;-91
2022/12/22 06:16:19;;;;;;;;;0.00;0.00;;;;;10.02;100.00;99944.00;4890634;29;45263;-92
2022/12/22 06:18:44;;;;;;;;;1.00;0.00;;;;;10.17;100.00;99980.53;4875012;29;45476;-91
2022/12/22 06:21:50;;;;;;;;;0.25;0.00;;;;;10.98;100.00;100122.78;4895630;29;45535;-92
2022/12/22 06:24:19;;;;;;;;;0.00;0.00;;;;;10.65;100.00;100091.09;4889331;29;45436;-93
2022/12/22 06:26:45;;;;;;;;;0.00;0.00;;;;;10.96;100.00;100135.19;4911334;28;45426;-92
2022/12/22 06:29:21;;;;;;;;;1.00;0.00;;;;;9.46;100.00;99902.41;4921692;28;44724;-93
2022/12/22 06:31:47;;;;;;;;;0.75;0.75;;;;;10.19;100.00;100015.72;4934343;28;45173;-92
2022/12/22 06:34:12;;;;;;;;;0.00;0.00;;;;;10.96;100.00;100150.16;4928203;28;46915;-93
2022/12/22 06:36:38;;;;;;;;;2.00;0.00;;;;;9.85;100.00;99970.88;4966271;28;45290;-93
2022/12/22 06:39:05;;;;;;;;;1.00;1.00;;;;;10.56;100.00;100107.19;4987739;28;45253;-90
2022/12/22 06:44:15;;;;;;;;;1.25;0.00;;;;;10.13;100.00;100037.00;4973284;28;45467;-91
2022/12/22 06:46:42;;;;;;;;;2.00;0.50;;;;;10.18;100.00;100045.66;4968482;28;45290;-92
2022/12/22 06:49:08;;;;;;;;;3.75;2.00;;;;;10.10;100.00;100043.25;4964314;28;45528;-91
2022/12/22 06:51:34;;;;;;;;;6.00;0.75;;;;;10.80;100.00;100166.47;4982717;28;45257;-91
2022/12/22 06:53:59;;;;;;;;;2.00;1.00;;;;;9.03;100.00;99863.06;4971928;28;47197;-91
2022/12/22 06:56:27;;;;;;;;;3.00;2.00;;;;;9.38;100.00;99926.34;4989411;28;46432;-91
2022/12/22 06:58:52;;;;;;;;;0.00;0.00;;;;;9.94;100.00;100021.66;4985058;28;45304;-91
2022/12/22 07:01:17;;;;;;;;;1.75;1.75;;;;;10.94;100.00;100203.09;4978822;28;45294;-92
2022/12/22 07:03:43;;;;;;;;;2.50;2.00;;;;;9.86;100.00;100007.78;4967839;28;46798;-92
2022/12/22 07:06:09;;;;;;;;;3.00;2.00;;;;;9.85;100.00;100021.03;4972735;28;45215;-91
2022/12/22 07:08:34;;;;;;;;;10.00;3.00;;;;;9.18;100.00;99903.09;4987585;28;45393;-91
2022/12/22 07:11:00;;;;;;;;;4.25;1.50;;;;;10.92;100.00;100199.63;4986514;28;45487;-91
2022/12/22 07:13:40;;;;;;;;;2.50;2.50;;;;;10.70;100.00;100158.81;4967322;28;48122;-92
2022/12/22 07:16:13;;;;;;;;;4.00;2.75;;;;;9.54;100.00;99958.47;4967135;28;45278;-91
2022/12/22 07:18:43;;;;;;;;;4.25;2.00;;;;;9.59;100.00;99988.25;4968121;28;45376;-91
2022/12/22 07:21:13;;;;;;;;;7.50;4.00;;;;;10.14;100.00;100092.44;4989418;28;45263;-91
2022/12/22 07:23:40;;;;;;;;;6.50;3.25;;;;;10.94;100.00;100231.31;4988378;28;46732;-89
2022/12/22 07:26:08;;;;;;;;;5.75;2.75;;;;;10.95;100.00;100219.84;4982169;28;45244;-90
2022/12/22 07:28:41;;;;;;;;;3.50;3.25;;;;;10.55;100.00;100160.09;4968611;28;45359;-93
2022/12/22 07:31:10;;;;;;;;;5.25;3.00;;;;;9.83;100.00;100043.97;4981333;28;45278;-91
2022/12/22 07:33:37;;;;;;;;;3.25;2.25;;;;;9.76;100.00;100012.44;4968111;28;48439;-89
2022/12/22 07:36:11;;;;;;;;;6.75;4.50;;;;;10.52;100.00;100149.59;4967928;28;45471;-89
2022/12/22 07:38:38;;;;;;;;;6.00;4.25;;;;;10.34;100.00;100135.09;4965748;28;45364;-91
2022/12/22 07:42:43;;;;;;;;;6.00;5.00;;;;;10.89;100.00;100228.81;4979355;28;45327;-89
2022/12/22 07:43:56;;;;;;;;;5.25;3.00;;;;;10.00;100.00;100105.09;4967818;28;45334;-90
2022/12/22 07:46:23;;;;;;;;;7.25;4.00;;;;;9.48;100.00;99991.16;4967393;28;45274;-90
2022/12/22 07:51:50;;;;;;;;;7.25;6.00;;;;;10.90;100.00;100240.22;4968381;28;45484;-90
2022/12/22 07:54:23;;;;;;;;;4.50;4.50;;;;;9.25;100.00;99967.97;4978837;28;46593;-89
2022/12/22 07:56:48;;;;;;;;;6.50;4.75;;;;;10.49;100.00;100182.25;4944438;28;45301;-90
2022/12/22 07:59:16;;;;;;;;;8.50;5.00;;;;;9.86;100.00;100080.84;4947803;28;45573;-89
2022/12/22 08:01:44;;;;;;;;;10.50;7.75;;;;;9.74;100.00;100048.53;4950832;28;45429;-91
2022/12/22 08:04:12;;;;;;;;;11.25;7.00;;;;;9.77;100.00;100060.81;4947472;28;45370;-91
2022/12/22 08:06:38;;;;;;;;;7.25;4.75;;;;;9.18;100.00;99950.56;4947055;28;45342;-90
2022/12/22 08:09:05;;;;;;;;;8.50;6.50;;;;;10.74;100.00;100219.50;4970616;28;44730;-91
2022/12/22 08:11:32;;;;;;;;;7.50;7.00;;;;;9.82;100.00;100069.47;4991111;28;45671;-91
2022/12/22 08:13:57;;;;;;;;;10.25;5.75;;;;;10.50;100.00;100181.34;4985687;28;46950;-91
2022/12/22 08:16:36;;;;;;;;;10.25;7.50;;;;;9.91;100.00;100076.28;4983607;28;45412;-90
2022/12/22 08:19:01;;;;;;;;;4.50;3.25;;;;;10.18;100.00;100131.97;4982867;28;45259;-89
2022/12/22 08:21:33;;;;;;;;;9.00;6.25;;;;;10.02;100.00;100119.16;4981686;28;45342;-90
2022/12/22 08:23:59;;;;;;;;;7.25;5.00;;;;;9.24;100.00;99966.25;4966534;28;47010;-89
2022/12/22 08:26:35;;;;;;;;;5.75;3.75;;;;;10.88;100.00;100252.63;4987318;28;45487;-89
2022/12/22 08:29:23;;;;;;;;;7.00;5.75;;;;;9.18;100.00;99961.13;4989119;28;45646;-91
2022/12/22 08:32:14;;;;;;;;;3.75;3.50;;;;;9.28;100.00;99969.66;4995203;28;45243;-90
2022/12/22 08:34:39;;;;;;;;;8.75;5.75;;;;;10.09;100.00;100104.00;4943968;28;46200;-90
2022/12/22 08:37:14;;;;;;;;;9.75;6.00;;;;;11.06;100.00;100275.94;4931567;28;45306;-90
2022/12/22 08:39:41;;;;;;;;;6.75;5.50;;;;;10.48;100.00;100181.41;4950793;28;45398;-90
2022/12/22 08:45:41;;;;;;;;;5.00;4.75;;;;;10.22;100.00;100131.84;4972421;28;45500;-91
2022/12/22 08:48:26;;;;;;;;;8.25;5.75;;;;;11.13;100.00;100266.06;4912026;29;45464;-90
2022/12/22 08:50:52;;;;;;;;;8.00;7.25;;;;;10.79;100.00;100196.44;4888644;29;45317;-91
2022/12/22 08:53:17;;;;;;;;;8.25;5.50;;;;;9.55;99.83;99986.56;4892312;29;45569;-92
2022/12/22 08:56:03;;;;;;;;;13.25;8.50;;;;;10.27;99.42;100114.09;4920585;29;45160;-93
2022/12/22 08:59:06;;;;;;;;;10.25;6.00;;;;;10.58;99.63;100131.84;4919096;29;44836;-93
2022/12/22 09:01:39;;;;;;;;;7.50;6.00;;;;;9.90;98.94;100041.13;4895605;29;45298;-91
2022/12/22 09:04:19;;;;;;;;;8.25;6.00;;;;;11.32;99.25;100258.50;4907430;29;45748;-94
2022/12/22 09:20:27;;;;;;;;;9.25;7.75;;;;;10.87;98.28;100140.75;4817777;29;45307;-91
2022/12/22 09:23:20;;;;;;;;;7.00;5.00;;;;;10.92;98.74;100154.69;4848900;29;45567;-91
2022/12/22 09:25:45;;;;;;;;;6.75;6.25;;;;;10.27;99.02;100031.34;4823199;29;45459;-89
2022/12/22 09:29:19;;;;;;;;;6.50;5.75;;;;;11.75;98.24;100259.88;4842236;29;45437;-92
2022/12/22 09:35:50;;;;;;;;;8.50;6.00;;;;;11.93;97.29;100270.88;4808591;29;45272;-93
2022/12/22 09:42:47;;;;;;;;;;;;;;;;;;;;;
2022/12/22 09:45:26;;;;;;;;;9.25;6.00;;;;;12.05;97.30;100292.56;4723172;30;45025;-93
2022/12/22 10:02:09;;;;;;;;;;;;;;;;;;;;;
2022/12/22 10:22:16;;;;;;;;;10.50;8.25;;;;;12.15;96.29;100265.81;4783359;29;44839;-93
2022/12/22 11:44:41;;;;;;;;;11.25;9.50;;;;;12.71;96.72;100249.81;4876243;29;45413;-93
2022/12/22 11:54:59;;;;;;;;;6.25;3.75;;;;;12.71;97.04;100228.63;4834841;29;45340;-94
2022/12/22 11:58:16;;;;;;;;;6.00;5.00;;;;;11.38;96.97;100015.75;4839366;29;45357;-93
2022/12/22 12:08:39;;;;;;;;;;;;;;;;;;;;;
2022/12/22 12:42:29;;;;;;;;;6.50;4.75;;;;;12.59;96.42;100165.41;4806205;29;44945;-92
2022/12/22 12:45:41;;;;;;;;;13.50;9.50;;;;;12.56;96.57;100155.75;4816939;29;45716;-95
2022/12/22 13:56:59;;;;;;;;;7.00;6.25;;;;;11.81;99.51;100087.63;4689210;30;45552;-93
2022/12/22 13:59:47;;;;;;;;;;;;;;;;;;;;;
2022/12/22 14:02:21;;;;;;;;;7.00;5.75;;;;;10.37;99.59;99834.75;4722864;30;70279;-90
2022/12/22 14:05:36;;;;;;;;;7.75;6.25;;;;;11.76;98.96;100064.84;4743347;30;47045;-91
2022/12/22 14:15:32;;;;;;;;;5.00;3.75;;;;;10.84;100.00;99905.50;4784934;29;44997;-92
2022/12/22 14:18:25;;;;;;;;;8.50;6.00;;;;;10.70;99.90;99883.94;4769896;29;46714;-92
2022/12/22 14:21:09;;;;;;;;;7.75;5.50;;;;;11.28;100.00;99984.34;4758390;29;45422;-92
2022/12/22 14:23:43;;;;;;;;;6.75;6.00;;;;;9.85;100.00;99746.50;4767043;29;45304;-90
2022/12/22 14:26:32;;;;;;;;;3.75;3.75;;;;;11.61;100.00;100045.88;4782761;29;45471;-92
2022/12/22 14:33:06;;;;;;;;;6.00;5.25;;;;;10.18;100.00;99802.72;4760809;29;45407;-91
2022/12/22 14:39:04;;;;;;;;;5.00;5.00;;;;;10.51;100.00;99867.78;4764827;29;44782;-90
2022/12/22 14:42:33;;;;;;;;;;;;;;;;;;;;;
2022/12/22 14:45:34;;;;;;;;;9.00;6.00;;;;;11.25;100.00;99964.16;4776658;29;73477;-92
2022/12/22 14:48:02;;;;;;;;;3.00;3.00;;;;;11.53;100.00;99995.84;4782822;29;45357;-93
2022/12/22 14:54:22;;;;;;;;;9.00;8.75;;;;;10.79;100.00;99868.66;4803560;29;45981;-92
2022/12/22 14:56:55;;;;;;;;;7.00;7.00;;;;;9.76;100.00;99710.69;4795827;29;45353;-91
2022/12/22 14:59:27;;;;;;;;;7.75;5.50;;;;;11.45;100.00;99974.09;4879339;29;44855;-91
2022/12/22 15:02:02;;;;;;;;;7.25;5.75;;;;;10.00;100.00;99735.47;4879678;28;45519;-90
2022/12/22 15:04:28;;;;;;;;;7.75;5.25;;;;;10.82;100.00;99852.69;4933110;28;45374;-91
2022/12/22 15:07:13;;;;;;;;;8.75;5.00;;;;;11.01;100.00;99878.53;4930546;28;44898;-92
2022/12/22 15:09:39;;;;;;;;;10.25;5.75;;;;;9.94;100.00;99693.44;4944572;28;45312;-90
2022/12/22 15:12:11;;;;;;;;;5.25;4.25;;;;;10.60;100.00;99825.25;4943513;28;45462;-90
2022/12/22 15:14:37;;;;;;;;;8.00;5.25;;;;;11.36;100.00;99938.22;4918347;28;48381;-90
2022/12/22 15:17:22;;;;;;;;;5.50;3.75;;;;;9.81;100.00;99676.25;4938844;28;45375;-92
2022/12/22 15:23:13;;;;;;;;;9.00;7.25;;;;;10.38;100.00;99744.00;4936891;28;45365;-91
2022/12/22 15:26:29;;;;;;;;;11.25;7.00;;;;;11.33;100.00;99900.41;4941767;28;48367;-91
2022/12/22 15:29:09;;;;;;;;;7.25;6.25;;;;;11.33;100.00;99901.28;4937264;28;45366;-92
2022/12/22 15:38:23;;;;;;;;;9.50;7.25;;;;;9.61;100.00;99598.59;4926836;28;45442;-91
2022/12/22 15:40:51;;;;;;;;;8.00;6.00;;;;;11.05;100.00;99837.00;4909942;28;45322;-92
2022/12/22 15:43:19;;;;;;;;;6.75;5.75;;;;;10.95;100.00;99821.44;4926468;28;45430;-92
2022/12/22 15:45:45;;;;;;;;;6.50;5.00;;;;;10.94;100.00;99797.69;4926828;28;45335;-91
2022/12/22 15:48:18;;;;;;;;;9.75;5.25;;;;;9.78;100.00;99591.00;4915279;28;46060;-91
2022/12/22 15:50:47;;;;;;;;;8.75;7.25;;;;;9.69;100.00;99578.09;4931189;28;45379;-92
2022/12/22 15:53:17;;;;;;;;;6.25;6.25;;;;;11.26;100.00;99845.97;4944770;28;45340;-92
2022/12/22 15:55:54;;;;;;;;;7.00;7.00;;;;;11.32;100.00;99828.09;4948425;28;45438;-91
2022/12/22 15:58:30;;;;;;;;;6.00;4.25;;;;;10.79;100.00;99741.75;4950461;28;46880;-92
2022/12/22 16:00:55;;;;;;;;;6.00;6.00;;;;;9.57;100.00;99531.88;4926298;28;45362;-92
2022/12/22 16:03:21;;;;;;;;;6.00;5.00;;;;;11.30;100.00;99814.06;4925336;28;45463;-93
2022/12/22 16:05:48;;;;;;;;;6.75;3.50;;;;;9.81;100.00;99566.28;4928040;28;45287;-90
2022/12/22 16:08:20;;;;;;;;;7.25;5.50;;;;;9.97;100.00;99585.09;4959984;28;48389;-90
2022/12/22 16:10:49;;;;;;;;;16.00;7.00;;;;;10.91;100.00;99723.78;4968743;28;45261;-92
2022/12/22 16:13:21;;;;;;;;;5.50;5.50;;;;;9.60;100.00;99504.53;4967821;28;45200;-92
2022/12/22 16:15:46;;;;;;;;;4.75;4.75;;;;;9.65;100.00;99512.28;4967715;28;45638;-91
2022/12/22 16:18:13;;;;;;;;;5.75;5.25;;;;;10.38;100.00;99646.25;4983915;28;47120;-92
2022/12/22 16:20:40;;;;;;;;;6.50;6.50;;;;;10.96;100.00;99732.38;4980143;28;45397;-90
2022/12/22 16:23:15;;;;;;;;;5.00;5.00;;;;;9.58;100.00;99501.94;4966913;28;45406;-89
2022/12/22 16:25:45;;;;;;;;;4.50;4.00;;;;;11.30;100.00;99784.13;4979137;28;45287;-92
2022/12/22 16:28:23;;;;;;;;;8.00;5.00;;;;;10.24;100.00;99607.09;4931427;28;47056;-92
2022/12/22 16:30:50;;;;;;;;;7.75;5.50;;;;;9.96;100.00;99554.38;4950764;28;45237;-92
2022/12/22 16:33:16;;;;;;;;;7.00;6.25;;;;;9.86;100.00;99534.47;4948146;28;45432;-92
2022/12/22 16:35:42;;;;;;;;;8.75;6.50;;;;;11.26;100.00;99775.41;4963775;28;45353;-90
2022/12/22 16:38:10;;;;;;;;;6.00;6.00;;;;;9.83;100.00;99535.41;4951957;28;45500;-91
2022/12/22 16:40:49;;;;;;;;;5.25;5.25;;;;;10.52;100.00;99647.56;4968014;28;45309;-91
2022/12/22 16:43:25;;;;;;;;;5.00;4.00;;;;;10.63;100.00;99674.50;4976291;28;44752;-91
2022/12/22 16:45:52;;;;;;;;;6.00;6.00;;;;;11.40;100.00;99780.19;4967478;28;45475;-91
2022/12/22 16:48:30;;;;;;;;;5.50;3.00;;;;;10.63;100.00;99642.81;4971770;28;46131;-90
2022/12/22 16:50:56;;;;;;;;;3.00;3.00;;;;;10.98;100.00;99712.91;4973299;28;45259;-90
2022/12/22 16:53:21;;;;;;;;;3.75;2.25;;;;;10.31;100.00;99584.84;4988773;28;45208;-90
2022/12/22 16:55:47;;;;;;;;;2.25;2.25;;;;;9.91;100.00;99535.16;4970641;28;45263;-91
2022/12/22 16:58:12;;;;;;;;;2.00;2.00;;;;;10.63;100.00;99640.16;4965368;28;45305;-91
2022/12/22 17:00:42;;;;;;;;;4.00;1.00;;;;;11.44;100.00;99767.75;4970990;28;45441;-90
2022/12/22 17:03:14;;;;;;;;;1.00;1.00;;;;;9.67;100.00;99463.84;4987706;28;44755;-91
2022/12/22 17:06:02;;;;;;;;;1.00;1.00;;;;;11.49;100.00;99748.16;4972014;28;45526;-91
2022/12/22 17:08:36;;;;;;;;;1.00;1.00;;;;;10.46;100.00;99567.63;4964553;28;48273;-90
2022/12/22 17:11:04;;;;;;;;;2.75;2.00;;;;;11.15;100.00;99680.56;4925001;28;45411;-90
2022/12/22 17:13:36;;;;;;;;;2.00;2.00;;;;;11.57;100.00;99739.91;4924547;28;45350;-91
2022/12/22 17:16:01;;;;;;;;;3.50;1.00;;;;;10.27;100.00;99533.03;4940831;28;45483;-91
2022/12/22 17:18:30;;;;;;;;;2.00;2.00;;;;;10.55;100.00;99565.56;4968193;28;46981;-90
2022/12/22 17:20:59;;;;;;;;;1.75;1.00;;;;;11.64;100.00;99745.84;4931677;28;45281;-90
2022/12/22 17:23:46;;;;;;;;;0.25;0.25;;;;;11.10;100.00;99642.88;4947325;28;44802;-92
2022/12/22 17:26:54;;;;;;;;;1.00;1.00;;;;;10.49;100.00;99546.38;4949802;28;45479;-91
2022/12/22 17:29:30;;;;;;;;;1.00;1.00;;;;;10.12;100.00;99491.31;4932427;28;48247;-89
2022/12/22 17:31:56;;;;;;;;;5.00;3.50;;;;;11.74;100.00;99749.88;4943809;28;45525;-91
2022/12/22 17:34:22;;;;;;;;;2.00;2.00;;;;;10.37;100.00;99511.59;4943567;28;45339;-90
2022/12/22 17:36:55;;;;;;;;;3.00;3.00;;;;;11.81;100.00;99769.91;4928997;28;45320;-90
2022/12/22 17:39:22;;;;;;;;;3.00;3.00;;;;;11.30;100.00;99665.06;4941621;28;47188;-92
2022/12/22 17:41:48;;;;;;;;;1.00;1.00;;;;;10.41;100.00;99513.22;4969207;28;45413;-92
2022/12/22 17:44:34;;;;;;;;;2.00;2.00;;;;;11.16;100.00;99628.56;4963070;28;45343;-93
2022/12/22 17:46:59;;;;;;;;;1.25;1.25;;;;;11.77;100.00;99709.16;4963550;28;45332;-92
2022/12/22 17:49:49;;;;;;;;;3.50;1.25;;;;;10.91;100.00;99565.16;4951923;28;46932;-92
2022/12/22 17:52:25;;;;;;;;;2.00;2.00;;;;;10.34;100.00;99464.16;4941231;28;45356;-92
2022/12/22 17:55:11;;;;;;;;;1.00;1.00;;;;;11.67;100.00;99690.13;4886241;28;45409;-93
2022/12/22 17:57:40;;;;;;;;;1.25;1.00;;;;;11.69;100.00;99680.34;4927828;28;45538;-93
2022/12/22 18:00:18;;;;;;;;;3.00;1.00;;;;;12.09;100.00;99752.97;4945854;28;46954;-93
2022/12/22 18:02:43;;;;;;;;;0.25;0.00;;;;;10.41;100.00;99466.53;4950268;28;44729;-92
2022/12/22 18:05:27;;;;;;;;;2.00;2.00;;;;;11.95;100.00;99708.50;4949057;28;44847;-93
2022/12/22 18:07:59;;;;;;;;;1.75;1.75;;;;;11.41;100.00;99633.78;4934878;28;45544;-93
2022/12/22 18:10:38;;;;;;;;;3.00;1.25;;;;;11.80;100.00;99680.78;4931324;28;46353;-92
2022/12/22 18:13:14;;;;;;;;;2.00;2.00;;;;;12.18;100.00;99744.66;4931502;28;45436;-92
2022/12/22 18:15:45;;;;;;;;;1.00;1.00;;;;;11.22;100.00;99585.13;4928760;28;45402;-90
2022/12/22 18:18:44;;;;;;;;;1.25;1.00;;;;;10.98;100.00;99540.22;4942264;28;45481;-92
2022/12/22 18:21:19;;;;;;;;;1.25;1.00;;;;;11.20;100.00;99583.44;4944505;28;46205;-91
2022/12/22 18:23:45;;;;;;;;;3.25;0.50;;;;;11.22;100.00;99585.13;4937976;28;45478;-92
2022/12/22 18:26:23;;;;;;;;;0.50;0.50;;;;;10.53;100.00;99480.22;4925243;28;45447;-92
2022/12/22 18:28:49;;;;;;;;;1.00;1.00;;;;;12.10;100.00;99730.88;4958757;28;45233;-92
2022/12/22 18:34:39;;;;;;;;;4.75;4.25;;;;;10.39;100.00;99419.97;4948032;28;45273;-92
2022/12/22 18:37:18;;;;;;;;;3.25;1.75;;;;;12.22;100.00;99717.13;4968611;28;44744;-89
2022/12/22 18:39:44;;;;;;;;;1.00;1.00;;;;;12.05;100.00;99687.78;4960068;28;45324;-92
2022/12/22 18:42:32;;;;;;;;;2.00;1.00;;;;;12.44;100.00;99734.81;4939071;28;47465;-93
2022/12/22 18:45:08;;;;;;;;;2.50;2.00;;;;;11.71;100.00;99630.88;4940770;28;45299;-92
2022/12/22 18:54:43;;;;;;;;;1.00;1.00;;;;;12.53;100.00;99741.50;4939963;28;45508;-93
2022/12/22 19:07:33;;;;;;;;;2.75;1.75;;;;;12.62;100.00;99773.78;4931654;28;45349;-91
2022/12/22 19:09:59;;;;;;;;;1.25;1.25;;;;;12.65;100.00;99762.22;4918331;28;44857;-91
2022/12/22 19:12:28;;;;;;;;;0.75;0.75;;;;;12.66;100.00;99763.06;4929589;28;45499;-92
2022/12/22 19:15:01;;;;;;;;;1.00;1.00;;;;;12.13;100.00;99661.88;4914383;28;44899;-91
2022/12/22 19:17:27;;;;;;;;;0.75;0.75;;;;;11.49;100.00;99567.31;4899315;28;47674;-91
2022/12/22 19:19:53;;;;;;;;;0.75;0.75;;;;;12.09;100.00;99674.38;4956199;28;45314;-91
2022/12/22 19:23:00;;;;;;;;;1.00;1.00;;;;;12.78;100.00;99778.47;4925841;28;45478;-91
2022/12/22 19:25:31;;;;;;;;;3.00;1.75;;;;;12.80;100.00;99776.63;4928262;28;45328;-92
2022/12/22 19:28:24;;;;;;;;;0.75;0.25;;;;;12.82;100.00;99784.50;4950951;28;47534;-90
2022/12/22 19:30:51;;;;;;;;;1.00;1.00;;;;;11.74;100.00;99622.78;4922278;28;45520;-91
2022/12/22 19:33:29;;;;;;;;;1.00;1.00;;;;;11.81;100.00;99615.47;4953966;28;45392;-91
2022/12/22 19:35:57;;;;;;;;;0.00;0.00;;;;;12.89;100.00;99800.09;4929237;28;45491;-92
2022/12/22 20:14:05;;;;;;;;;1.00;1.00;;;;;13.00;100.00;99841.19;4984243;28;45535;-90
2022/12/22 20:16:31;;;;;;;;;0.50;0.50;;;;;12.44;100.00;99737.44;4984568;28;44792;-92
2022/12/22 20:18:57;;;;;;;;;2.75;1.00;;;;;11.45;100.00;99576.28;4979255;28;46992;-90
2022/12/22 20:21:28;;;;;;;;;2.75;2.75;;;;;11.56;100.00;99606.72;4982581;28;45730;-90
2022/12/22 20:23:59;;;;;;;;;1.00;1.00;;;;;12.88;100.00;99821.38;4932727;28;45273;-91
2022/12/22 20:26:34;;;;;;;;;1.00;1.00;;;;;12.56;100.00;99776.69;4963972;28;45393;-91
2022/12/22 20:29:13;;;;;;;;;1.25;1.00;;;;;11.78;100.00;99616.47;4981411;28;47500;-93
2022/12/22 20:31:39;;;;;;;;;1.00;1.00;;;;;12.69;100.00;99806.22;4956655;28;45290;-90
2022/12/22 20:34:05;;;;;;;;;1.00;1.00;;;;;13.07;100.00;99863.91;4963570;28;45308;-93
2022/12/22 20:36:59;;;;;;;;;10.00;10.00;;;;;12.67;100.00;99786.00;4944318;28;45605;-92
2022/12/22 20:39:30;;;;;;;;;73.00;55.25;;;;;12.57;100.00;99775.78;4930842;28;45041;-92
2022/12/22 20:42:02;;;;;;;;;13.00;11.00;;;;;12.21;100.00;99718.03;4936103;28;45344;-92
2022/12/22 20:44:30;;;;;;;;;7.00;6.50;;;;;12.10;100.00;99685.84;4950449;28;45336;-91
2022/12/22 20:47:02;;;;;;;;;2.25;2.25;;;;;11.66;100.00;99628.41;4985914;28;45405;-90
2022/12/22 20:49:33;;;;;;;;;18.50;16.75;;;;;13.11;100.00;99887.59;4968524;28;46706;-90
2022/12/22 20:51:59;;;;;;;;;33.00;31.75;;;;;11.71;100.00;99628.22;4959788;28;45442;-90
2022/12/22 20:54:24;;;;;;;;;11.25;9.75;;;;;12.42;100.00;99749.91;4954466;28;45454;-90
2022/12/22 20:57:02;;;;;;;;;6.25;3.00;;;;;12.17;100.00;99708.47;4977039;28;45334;-90
2022/12/22 20:59:27;;;;;;;;;1.75;1.75;;;;;12.75;100.00;99821.91;4965243;28;47225;-90
2022/12/22 21:02:21;;;;;;;;;3.75;1.00;;;;;12.51;100.00;99778.69;4963041;28;45464;-91
2022/12/22 21:04:47;;;;;;;;;3.50;2.00;;;;;12.15;100.00;99726.25;4979100;28;45525;-91
2022/12/22 21:07:13;;;;;;;;;1.00;1.00;;;;;12.60;100.00;99812.78;4966054;28;45584;-91
2022/12/22 21:09:40;;;;;;;;;0.50;0.00;;;;;12.52;100.00;99811.34;4964394;28;46626;-90
2022/12/22 21:12:15;;;;;;;;;1.00;1.00;;;;;13.16;100.00;99911.28;4955684;28;45367;-91
2022/12/22 21:14:40;;;;;;;;;0.00;0.00;;;;;11.88;100.00;99689.28;4967775;28;45439;-91
2022/12/22 21:17:15;;;;;;;;;2.00;0.25;;;;;12.19;100.00;99743.75;4967142;28;45473;-90
2022/12/22 21:19:40;;;;;;;;;0.00;0.00;;;;;13.17;100.00;99913.00;4954182;28;46902;-91
2022/12/22 21:22:06;;;;;;;;;0.00;0.00;;;;;13.19;100.00;99923.56;4968642;28;45394;-91
2022/12/22 21:24:31;;;;;;;;;1.00;1.00;;;;;12.32;100.00;99785.66;4965803;28;45311;-91
2022/12/22 21:26:57;;;;;;;;;0.00;0.00;;;;;12.39;100.00;99797.69;4982550;28;45368;-91
2022/12/22 21:29:25;;;;;;;;;1.00;1.00;;;;;13.20;100.00;99954.50;4953152;28;47333;-91
2022/12/22 21:31:51;;;;;;;;;1.00;1.00;;;;;12.28;100.00;99784.88;4966089;28;45435;-92
2022/12/22 21:34:19;;;;;;;;;0.50;0.50;;;;;12.85;100.00;99867.44;4948475;28;45309;-90
2022/12/22 21:36:52;;;;;;;;;1.00;1.00;;;;;12.64;100.00;99836.50;4959420;28;45721;-90
2022/12/22 21:39:35;;;;;;;;;0.00;0.00;;;;;12.08;100.00;99735.34;4983886;28;45354;-90
2022/12/22 21:42:06;;;;;;;;;1.00;1.00;;;;;11.41;100.00;99633.78;4970151;28;45312;-90
2022/12/22 21:44:33;;;;;;;;;0.00;0.00;;;;;12.67;100.00;99854.94;4969462;28;45361;-89
2022/12/22 21:47:00;;;;;;;;;0.50;0.00;;;;;11.78;100.00;99695.88;4952639;28;45316;-90
2022/12/22 21:49:28;;;;;;;;;0.00;0.00;;;;;13.19;100.00;99950.09;4961502;28;46772;-90
2022/12/22 21:51:56;;;;;;;;;0.00;0.00;;;;;11.56;100.00;99686.09;4971237;28;44822;-91
2022/12/22 21:54:26;;;;;;;;;0.00;0.00;;;;;11.83;100.00;99728.34;4961399;28;45452;-91
2022/12/22 21:56:55;;;;;;;;;0.50;0.50;;;;;12.43;100.00;99842.59;4967082;28;45548;-91
2022/12/22 21:59:24;;;;;;;;;1.50;0.00;;;;;13.18;100.00;99946.59;4982918;28;46946;-91
2022/12/22 22:05:27;;;;;;;;;0.00;0.00;;;;;12.82;100.00;99917.09;4985345;28;45413;-91
2022/12/22 22:07:54;;;;;;;;;0.00;0.00;;;;;12.30;100.00;99820.16;4984965;28;45323;-90